createdAt,value
2023-01-24T00:00:47.781Z,53.89
2023-01-24T00:01:51.173Z,55.16
2023-01-24T00:02:54.768Z,55.11
2023-01-24T00:03:59.923Z,53.78
2023-01-24T00:05:02.459Z,53.56
2023-01-24T00:06:06.733Z,53.17
2023-01-24T00:07:08.872Z,51.88
2023-01-24T00:08:14.629Z,51.24
2023-01-24T00:09:17.349Z,51.63
2023-01-24T00:10:20.826Z,51.31
2023-01-24T00:11:23.470Z,51.26
2023-01-24T00:12:27.046Z,51.47
2023-01-24T00:13:29.673Z,51.96
2023-01-24T00:14:33.159Z,53.10
2023-01-24T00:15:35.650Z,53.37
2023-01-24T00:16:39.160Z,52.84
2023-01-24T00:17:41.968Z,52.77
2023-01-24T00:18:45.694Z,52.37
2023-01-24T00:19:49.624Z,52.26
2023-01-24T00:20:53.223Z,52.50
2023-01-24T00:21:55.879Z,52.75
2023-01-24T00:22:59.379Z,52.41
2023-01-24T00:24:01.855Z,52.59
2023-01-24T00:25:05.758Z,52.01
2023-01-24T00:26:08.619Z,51.61
2023-01-24T00:27:12.567Z,51.27
2023-01-24T00:28:15.220Z,51.30
2023-01-24T00:29:18.809Z,52.00
2023-01-24T00:30:21.555Z,52.23
2023-01-24T00:31:25.025Z,53.26
2023-01-24T00:32:27.497Z,52.63
2023-01-24T00:33:31.459Z,52.34
2023-01-24T00:34:34.178Z,52.21
2023-01-24T00:35:39.091Z,51.83
2023-01-24T00:36:42.624Z,50.82
2023-01-24T00:37:45.282Z,51.55
2023-01-24T00:38:49.158Z,51.31
2023-01-24T00:39:52.059Z,51.19
2023-01-24T00:40:55.626Z,51.62
2023-01-24T00:41:57.950Z,51.54
2023-01-24T00:43:01.390Z,51.21
2023-01-24T00:44:04.215Z,50.45
2023-01-24T00:45:09.028Z,50.84
2023-01-24T00:46:11.388Z,50.36
2023-01-24T00:47:15.113Z,50.59
2023-01-24T00:48:17.366Z,50.00
2023-01-24T00:49:21.301Z,49.46
2023-01-24T00:50:23.831Z,50.15
2023-01-24T00:51:29.250Z,50.63
2023-01-24T00:52:31.814Z,50.42
2023-01-24T00:53:35.652Z,51.07
2023-01-24T00:54:38.333Z,51.81
2023-01-24T00:55:44.970Z,51.81
2023-01-24T00:56:47.419Z,51.40
2023-01-24T00:57:50.820Z,51.27
2023-01-24T00:58:53.301Z,51.81
2023-01-24T00:59:56.679Z,51.92
2023-01-24T01:01:01.428Z,51.96
2023-01-24T01:02:05.157Z,51.89
2023-01-24T01:03:08.258Z,52.12
2023-01-24T01:04:13.890Z,52.11
2023-01-24T01:05:16.811Z,52.13
2023-01-24T01:06:20.867Z,52.00
2023-01-24T01:07:25.885Z,53.03
2023-01-24T01:08:29.377Z,53.53
2023-01-24T01:09:31.740Z,53.80
2023-01-24T01:10:35.279Z,53.74
2023-01-24T01:11:40.599Z,52.70
2023-01-24T01:12:43.950Z,53.00
2023-01-24T01:13:49.109Z,53.14
2023-01-24T01:14:52.843Z,52.41
2023-01-24T01:16:01.731Z,52.06
2023-01-24T01:17:05.149Z,52.11
2023-01-24T01:18:08.030Z,51.69
2023-01-24T01:19:11.678Z,50.76
2023-01-24T01:20:14.134Z,50.35
2023-01-24T01:21:19.741Z,50.31
2023-01-24T01:22:22.243Z,49.45
2023-01-24T01:23:27.800Z,50.22
2023-01-24T01:24:30.562Z,49.78
2023-01-24T01:25:34.356Z,49.49
2023-01-24T01:26:36.765Z,49.73
2023-01-24T01:27:40.347Z,50.37
2023-01-24T01:28:44.022Z,50.51
2023-01-24T01:29:46.348Z,50.20
2023-01-24T01:30:54.232Z,50.02
2023-01-24T01:31:56.827Z,50.34
2023-01-24T01:33:00.400Z,50.25
2023-01-24T01:34:03.308Z,50.40
2023-01-24T01:35:07.495Z,49.78
2023-01-24T01:36:10.135Z,49.92
2023-01-24T01:37:13.551Z,50.01
2023-01-24T01:38:15.830Z,50.73
2023-01-24T01:39:20.864Z,51.48
2023-01-24T01:40:23.092Z,50.91
2023-01-24T01:41:27.147Z,51.16
2023-01-24T01:42:41.865Z,50.96
2023-01-24T01:43:59.333Z,50.49
2023-01-24T01:45:35.533Z,50.69
2023-01-24T01:46:43.671Z,50.41
2023-01-24T01:47:47.934Z,49.99
2023-01-24T01:48:53.910Z,49.70
2023-01-24T01:50:02.706Z,50.25
2023-01-24T01:51:12.274Z,49.70
2023-01-24T01:52:15.551Z,50.38
2023-01-24T01:53:19.129Z,50.56
2023-01-24T01:54:27.779Z,50.20
2023-01-24T01:55:34.424Z,50.17
2023-01-24T01:56:43.208Z,50.25
2023-01-24T01:57:48.848Z,50.94
2023-01-24T01:58:52.762Z,50.62
2023-01-24T01:59:57.771Z,50.57
2023-01-24T02:01:01.552Z,50.79
2023-01-24T02:02:07.508Z,51.03
2023-01-24T02:03:31.461Z,50.71
2023-01-24T02:04:37.942Z,50.92
2023-01-24T02:05:40.516Z,50.13
2023-01-24T02:06:53.448Z,49.89
2023-01-24T02:08:01.015Z,50.10
2023-01-24T02:09:09.735Z,50.56
2023-01-24T02:10:15.224Z,50.39
2023-01-24T02:11:37.312Z,50.54
2023-01-24T02:12:45.037Z,50.35
2023-01-24T02:13:48.225Z,50.54
2023-01-24T02:15:14.686Z,50.10
2023-01-24T02:16:17.671Z,50.25
2023-01-24T02:17:22.274Z,50.70
2023-01-24T02:18:24.438Z,51.06
2023-01-24T02:19:52.991Z,50.98
2023-01-24T02:20:55.358Z,49.45
2023-01-24T02:22:07.242Z,48.49
2023-01-24T02:23:26.071Z,48.16
2023-01-24T02:24:36.351Z,48.53
2023-01-24T02:25:47.480Z,47.77
2023-01-24T02:26:51.415Z,48.52
2023-01-24T02:27:56.738Z,48.36
2023-01-24T02:29:03.720Z,47.75
2023-01-24T02:30:08.385Z,47.03
2023-01-24T02:31:10.904Z,46.75
2023-01-24T02:32:16.126Z,46.66
2023-01-24T02:33:21.309Z,46.60
2023-01-24T02:34:25.259Z,46.89
2023-01-24T02:35:29.962Z,45.45
2023-01-24T02:36:37.042Z,46.35
2023-01-24T02:37:40.102Z,45.55
2023-01-24T02:38:46.822Z,46.23
2023-01-24T02:39:59.429Z,45.61
2023-01-24T02:41:07.741Z,45.37
2023-01-24T02:42:14.652Z,45.51
2023-01-24T02:43:22.033Z,45.19
2023-01-24T02:44:30.737Z,45.60
2023-01-24T02:45:36.643Z,45.59
2023-01-24T02:46:40.286Z,46.05
2023-01-24T02:47:49.465Z,45.56
2023-01-24T02:48:52.323Z,45.47
2023-01-24T02:49:55.720Z,46.20
2023-01-24T02:51:16.868Z,46.46
2023-01-24T02:52:38.283Z,46.06
2023-01-24T02:53:40.698Z,46.35
2023-01-24T02:54:44.501Z,46.49
2023-01-24T02:56:01.692Z,46.88
2023-01-24T02:57:22.737Z,46.14
2023-01-24T02:58:26.943Z,46.76
2023-01-24T02:59:30.940Z,46.63
2023-01-24T03:00:33.419Z,47.07
2023-01-24T03:01:36.704Z,47.72
2023-01-24T03:02:39.580Z,48.04
2023-01-24T03:03:43.206Z,48.13
2023-01-24T03:04:45.425Z,48.00
2023-01-24T03:05:57.955Z,48.27
2023-01-24T03:07:00.640Z,48.24
2023-01-24T03:08:03.976Z,48.36
2023-01-24T03:09:19.724Z,49.18
2023-01-24T03:10:23.291Z,48.72
2023-01-24T03:11:25.557Z,48.76
2023-01-24T03:12:46.460Z,48.45
2023-01-24T03:14:08.309Z,48.40
2023-01-24T03:15:30.250Z,49.13
2023-01-24T03:16:51.225Z,49.24
2023-01-24T03:18:12.397Z,48.57
2023-01-24T03:19:33.338Z,48.25
2023-01-24T03:20:54.917Z,48.23
2023-01-24T03:22:17.304Z,48.12
2023-01-24T03:23:38.701Z,48.15
2023-01-24T03:25:00.072Z,48.39
2023-01-24T03:26:21.311Z,47.78
2023-01-24T03:27:42.836Z,47.12
2023-01-24T03:29:03.541Z,47.09
2023-01-24T03:30:28.448Z,47.01
2023-01-24T03:31:49.307Z,47.92
2023-01-24T03:33:10.356Z,47.47
2023-01-24T03:34:32.886Z,47.53
2023-01-24T03:35:35.808Z,47.76
2023-01-24T03:36:39.347Z,47.41
2023-01-24T03:38:00.252Z,47.18
2023-01-24T03:39:21.266Z,47.33
2023-01-24T03:40:23.763Z,47.58
2023-01-24T03:41:27.198Z,47.70
2023-01-24T03:42:29.916Z,47.31
2023-01-24T03:43:34.484Z,46.79
2023-01-24T03:44:36.896Z,46.46
2023-01-24T03:45:42.515Z,46.42
2023-01-24T03:46:45.335Z,47.48
2023-01-24T03:47:55.589Z,46.75
2023-01-24T03:48:59.196Z,46.68
2023-01-24T03:50:19.985Z,46.68
2023-01-24T03:51:40.390Z,46.79
2023-01-24T03:52:42.740Z,46.91
2023-01-24T03:53:46.216Z,47.27
2023-01-24T03:54:48.887Z,46.54
2023-01-24T03:55:54.348Z,47.08
2023-01-24T03:56:56.793Z,46.63
2023-01-24T03:58:00.492Z,46.85
2023-01-24T03:59:03.886Z,46.92
2023-01-24T04:00:08.234Z,46.92
2023-01-24T04:01:13.262Z,46.91
2023-01-24T04:02:16.092Z,46.74
2023-01-24T04:03:19.912Z,46.59
2023-01-24T04:04:22.626Z,45.57
2023-01-24T04:05:26.280Z,46.10
2023-01-24T04:06:29.360Z,46.52
2023-01-24T04:07:33.089Z,45.92
2023-01-24T04:08:35.579Z,46.26
2023-01-24T04:09:39.491Z,46.60
2023-01-24T04:10:42.903Z,46.92
2023-01-24T04:11:45.297Z,47.35
2023-01-24T04:12:49.162Z,46.46
2023-01-24T04:13:52.044Z,47.10
2023-01-24T04:14:55.454Z,46.33
2023-01-24T04:15:58.769Z,46.53
2023-01-24T04:17:03.174Z,46.61
2023-01-24T04:18:07.963Z,46.09
2023-01-24T04:19:10.399Z,46.16
2023-01-24T04:20:14.872Z,46.39
2023-01-24T04:21:17.669Z,46.63
2023-01-24T04:22:21.035Z,46.47
2023-01-24T04:23:24.883Z,46.74
2023-01-24T04:24:28.377Z,46.81
2023-01-24T04:25:31.899Z,46.67
2023-01-24T04:26:34.188Z,47.21
2023-01-24T04:27:38.674Z,48.09
2023-01-24T04:28:41.595Z,48.03
2023-01-24T04:29:45.009Z,47.90
2023-01-24T04:30:47.547Z,47.55
2023-01-24T04:31:51.561Z,47.74
2023-01-24T04:32:55.873Z,48.16
2023-01-24T04:33:59.286Z,47.83
2023-01-24T04:35:01.862Z,47.08
2023-01-24T04:36:06.264Z,47.48
2023-01-24T04:37:09.952Z,47.45
2023-01-24T04:38:12.428Z,46.98
2023-01-24T04:39:15.782Z,47.18
2023-01-24T04:40:18.476Z,47.54
2023-01-24T04:41:22.180Z,47.22
2023-01-24T04:42:24.750Z,47.55
2023-01-24T04:43:28.736Z,47.39
2023-01-24T04:44:31.108Z,46.81
2023-01-24T04:45:34.802Z,47.79
2023-01-24T04:46:37.026Z,47.75
2023-01-24T04:47:40.700Z,47.33
2023-01-24T04:48:44.500Z,47.68
2023-01-24T04:49:47.867Z,47.00
2023-01-24T04:50:50.462Z,47.42
2023-01-24T04:51:54.401Z,47.05
2023-01-24T04:52:57.083Z,46.63
2023-01-24T04:54:01.318Z,46.84
2023-01-24T04:55:04.140Z,46.86
2023-01-24T04:56:08.255Z,46.42
2023-01-24T04:57:13.167Z,46.39
2023-01-24T04:58:16.825Z,46.22
2023-01-24T04:59:19.123Z,45.79
2023-01-24T05:00:22.611Z,45.50
2023-01-24T05:01:24.946Z,45.62
2023-01-24T05:02:28.524Z,45.75
2023-01-24T05:03:30.901Z,46.14
2023-01-24T05:04:36.209Z,46.35
2023-01-24T05:05:38.790Z,44.43
2023-01-24T05:06:42.032Z,45.01
2023-01-24T05:07:44.576Z,44.55
2023-01-24T05:08:48.122Z,45.62
2023-01-24T05:09:50.638Z,45.42
2023-01-24T05:10:54.230Z,43.94
2023-01-24T05:11:56.748Z,44.77
2023-01-24T05:13:00.180Z,44.29
2023-01-24T05:14:02.692Z,43.97
2023-01-24T05:15:07.149Z,44.72
2023-01-24T05:16:09.943Z,44.79
2023-01-24T05:17:13.636Z,44.46
2023-01-24T05:18:16.860Z,44.10
2023-01-24T05:19:20.721Z,44.15
2023-01-24T05:20:24.603Z,43.46
2023-01-24T05:21:28.443Z,43.77
2023-01-24T05:22:31.128Z,43.67
2023-01-24T05:23:34.694Z,44.65
2023-01-24T05:24:37.330Z,45.27
2023-01-24T05:25:40.923Z,45.44
2023-01-24T05:26:43.162Z,45.49
2023-01-24T05:27:46.727Z,45.14
2023-01-24T05:28:49.482Z,45.19
2023-01-24T05:29:52.982Z,44.58
2023-01-24T05:30:59.736Z,43.28
2023-01-24T05:32:03.129Z,43.59
2023-01-24T05:33:06.058Z,42.96
2023-01-24T05:34:09.497Z,43.13
2023-01-24T05:35:12.178Z,43.85
2023-01-24T05:36:18.611Z,42.71
2023-01-24T05:37:21.033Z,43.19
2023-01-24T05:38:24.559Z,42.26
2023-01-24T05:39:26.952Z,43.12
2023-01-24T05:40:30.535Z,43.13
2023-01-24T05:41:32.785Z,43.35
2023-01-24T05:42:36.319Z,42.65
2023-01-24T05:43:39.866Z,42.73
2023-01-24T05:44:43.783Z,41.96
2023-01-24T05:45:47.327Z,41.66
2023-01-24T05:46:49.663Z,41.77
2023-01-24T05:47:53.148Z,42.27
2023-01-24T05:48:55.524Z,40.68
2023-01-24T05:49:58.806Z,40.58
2023-01-24T05:51:03.014Z,40.64
2023-01-24T05:52:08.863Z,42.38
2023-01-24T05:53:11.184Z,41.51
2023-01-24T05:54:14.506Z,41.66
2023-01-24T05:55:18.238Z,40.97
2023-01-24T05:56:21.265Z,41.20
2023-01-24T05:57:24.950Z,41.21
2023-01-24T05:58:29.473Z,42.08
2023-01-24T05:59:32.952Z,42.06
2023-01-24T06:00:35.327Z,41.68
2023-01-24T06:01:38.912Z,42.34
2023-01-24T06:02:41.679Z,42.23
2023-01-24T06:03:47.230Z,42.40
2023-01-24T06:04:49.933Z,42.17
2023-01-24T06:05:55.614Z,42.55
2023-01-24T06:06:58.297Z,41.25
2023-01-24T06:08:03.102Z,42.79
2023-01-24T06:09:05.800Z,41.77
2023-01-24T06:10:10.448Z,42.14
2023-01-24T06:11:15.525Z,42.35
2023-01-24T06:12:18.974Z,42.00
2023-01-24T06:13:21.324Z,42.28
2023-01-24T06:14:24.804Z,43.65
2023-01-24T06:15:27.231Z,42.94
2023-01-24T06:16:31.082Z,43.16
2023-01-24T06:17:33.484Z,42.72
2023-01-24T06:18:36.937Z,43.77
2023-01-24T06:19:39.886Z,44.37
2023-01-24T06:20:43.745Z,44.17
2023-01-24T06:21:49.178Z,43.92
2023-01-24T06:22:54.503Z,44.22
2023-01-24T06:24:00.012Z,44.30
2023-01-24T06:25:03.429Z,44.32
2023-01-24T06:26:07.650Z,42.33
2023-01-24T06:27:10.624Z,42.24
2023-01-24T06:28:14.515Z,42.49
2023-01-24T06:29:20.207Z,42.51
2023-01-24T06:30:23.970Z,42.23
2023-01-24T06:31:37.711Z,42.54
2023-01-24T06:32:57.101Z,43.24
2023-01-24T06:34:17.412Z,43.61
2023-01-24T06:35:28.466Z,42.39
2023-01-24T06:36:48.835Z,43.07
2023-01-24T06:37:53.124Z,43.77
2023-01-24T06:38:57.273Z,43.01
2023-01-24T06:40:01.813Z,42.46
2023-01-24T06:41:05.760Z,43.09
2023-01-24T06:42:10.489Z,42.60
2023-01-24T06:43:14.215Z,41.75
2023-01-24T06:44:17.127Z,42.63
2023-01-24T06:45:21.289Z,42.61
2023-01-24T06:46:23.812Z,42.03
2023-01-24T06:47:29.169Z,42.76
2023-01-24T06:48:31.417Z,42.82
2023-01-24T06:49:34.946Z,42.65
2023-01-24T06:50:37.200Z,43.68
2023-01-24T06:51:40.757Z,43.51
2023-01-24T06:52:47.120Z,43.86
2023-01-24T06:53:50.393Z,43.72
2023-01-24T06:54:52.707Z,42.90
2023-01-24T06:55:57.321Z,42.58
2023-01-24T06:56:59.882Z,42.54
2023-01-24T06:58:05.561Z,42.03
2023-01-24T06:59:07.968Z,41.74
2023-01-24T07:00:12.580Z,42.16
2023-01-24T07:01:15.622Z,42.84
2023-01-24T07:02:19.042Z,43.23
2023-01-24T07:03:21.756Z,43.24
2023-01-24T07:04:26.043Z,43.40
2023-01-24T07:05:28.994Z,43.84
2023-01-24T07:06:32.337Z,43.98
2023-01-24T07:07:35.095Z,43.88
2023-01-24T07:08:38.341Z,43.88
2023-01-24T07:09:41.065Z,43.53
2023-01-24T07:10:44.370Z,44.06
2023-01-24T07:11:53.497Z,44.20
2023-01-24T07:12:55.879Z,44.15
2023-01-24T07:13:59.203Z,44.24
2023-01-24T07:15:01.426Z,44.15
2023-01-24T07:16:05.169Z,44.36
2023-01-24T07:17:08.345Z,44.22
2023-01-24T07:18:14.187Z,44.00
2023-01-24T07:19:18.761Z,45.25
2023-01-24T07:20:22.810Z,44.79
2023-01-24T07:21:26.406Z,46.28
2023-01-24T07:22:30.704Z,46.07
2023-01-24T07:23:35.662Z,45.67
2023-01-24T07:24:38.693Z,44.04
2023-01-24T07:25:43.868Z,44.32
2023-01-24T07:26:49.675Z,44.97
2023-01-24T07:27:53.877Z,46.36
2023-01-24T07:28:56.417Z,46.32
2023-01-24T07:29:59.806Z,47.69
2023-01-24T07:31:03.543Z,46.84
2023-01-24T07:32:06.045Z,48.91
2023-01-24T07:33:09.527Z,49.40
2023-01-24T07:34:16.188Z,48.65
2023-01-24T07:35:20.487Z,46.94
2023-01-24T07:36:24.254Z,47.56
2023-01-24T07:37:27.673Z,43.62
2023-01-24T07:38:30.029Z,43.83
2023-01-24T07:39:33.698Z,44.57
2023-01-24T07:40:37.747Z,44.80
2023-01-24T07:41:43.576Z,44.58
2023-01-24T07:42:47.429Z,43.61
2023-01-24T07:43:50.827Z,46.21
2023-01-24T07:44:54.974Z,45.73
2023-01-24T07:45:58.406Z,48.23
2023-01-24T07:47:01.010Z,47.78
2023-01-24T07:48:04.613Z,45.98
2023-01-24T07:49:07.955Z,47.46
2023-01-24T07:50:12.469Z,47.58
2023-01-24T07:51:14.771Z,47.05
2023-01-24T07:52:18.014Z,48.23
2023-01-24T07:53:20.255Z,48.42
2023-01-24T07:54:23.554Z,48.21
2023-01-24T07:55:26.578Z,46.51
2023-01-24T07:56:30.114Z,47.87
2023-01-24T07:57:32.765Z,46.23
2023-01-24T07:58:37.557Z,46.84
2023-01-24T07:59:39.823Z,47.89
2023-01-24T08:00:45.147Z,48.40
2023-01-24T08:01:49.205Z,48.30
2023-01-24T08:02:51.547Z,47.70
2023-01-24T08:03:57.450Z,47.58
2023-01-24T08:05:01.048Z,48.73
2023-01-24T08:06:06.378Z,47.76
2023-01-24T08:07:17.752Z,48.46
2023-01-24T08:08:21.626Z,49.27
2023-01-24T08:09:24.143Z,47.82
2023-01-24T08:10:27.649Z,48.03
2023-01-24T08:11:29.923Z,47.92
2023-01-24T08:12:33.538Z,48.49
2023-01-24T08:13:37.161Z,48.80
2023-01-24T08:14:40.593Z,50.25
2023-01-24T08:15:43.408Z,50.93
2023-01-24T08:16:47.054Z,51.85
2023-01-24T08:17:50.705Z,53.38
2023-01-24T08:18:52.917Z,55.26
2023-01-24T08:19:57.836Z,56.36
2023-01-24T08:21:00.915Z,56.84
2023-01-24T08:22:04.757Z,57.41
2023-01-24T08:23:08.129Z,59.20
2023-01-24T08:24:10.773Z,61.08
2023-01-24T08:25:14.223Z,62.19
2023-01-24T08:26:17.526Z,63.07
2023-01-24T08:27:20.197Z,63.01
2023-01-24T08:28:23.635Z,64.08
2023-01-24T08:29:28.694Z,64.34
2023-01-24T08:30:32.272Z,64.09
2023-01-24T08:31:34.477Z,66.02
2023-01-24T08:32:37.755Z,67.56
2023-01-24T08:33:40.043Z,64.02
2023-01-24T08:34:43.547Z,63.19
2023-01-24T08:35:47.449Z,63.89
2023-01-24T08:36:50.033Z,65.89
2023-01-24T08:37:53.604Z,66.88
2023-01-24T08:39:05.759Z,66.19
2023-01-24T08:40:11.713Z,68.17
2023-01-24T08:41:14.208Z,68.72
2023-01-24T08:42:17.594Z,69.30
2023-01-24T08:43:20.874Z,68.58
2023-01-24T08:44:23.132Z,69.56
2023-01-24T08:45:28.472Z,70.00
2023-01-24T08:46:31.195Z,69.91
2023-01-24T08:47:34.453Z,71.09
2023-01-24T08:48:36.625Z,72.45
2023-01-24T08:49:40.152Z,70.95
2023-01-24T08:50:44.222Z,70.87
2023-01-24T08:51:48.889Z,69.26
2023-01-24T08:52:56.531Z,70.57
2023-01-24T08:53:58.683Z,71.45
2023-01-24T08:55:01.983Z,70.57
2023-01-24T08:56:05.093Z,73.45
2023-01-24T08:57:09.136Z,72.16
2023-01-24T08:58:12.521Z,70.58
2023-01-24T08:59:15.961Z,71.31
2023-01-24T09:00:20.048Z,73.64
2023-01-24T09:01:26.809Z,71.69
2023-01-24T09:02:30.309Z,73.70
2023-01-24T09:03:32.718Z,73.58
2023-01-24T09:04:36.278Z,74.21
2023-01-24T09:05:39.710Z,72.94
2023-01-24T09:06:42.038Z,71.15
2023-01-24T09:07:45.300Z,70.85
2023-01-24T09:08:47.618Z,70.90
2023-01-24T09:09:51.128Z,71.58
2023-01-24T09:10:54.831Z,72.89
2023-01-24T09:11:57.924Z,72.28
2023-01-24T09:13:02.431Z,70.51
2023-01-24T09:14:04.639Z,71.54
2023-01-24T09:15:09.100Z,68.44
2023-01-24T09:16:12.670Z,70.19
2023-01-24T09:17:17.412Z,69.49
2023-01-24T09:18:21.180Z,68.03
2023-01-24T09:19:25.066Z,70.31
2023-01-24T09:20:27.448Z,69.89
2023-01-24T09:21:31.024Z,70.19
2023-01-24T09:22:34.993Z,70.19
2023-01-24T09:23:37.548Z,68.82
2023-01-24T09:24:40.920Z,67.34
2023-01-24T09:25:50.807Z,65.42
2023-01-24T09:26:54.114Z,65.87
2023-01-24T09:27:56.974Z,68.07
2023-01-24T09:29:00.465Z,68.06
2023-01-24T09:30:03.747Z,66.82
2023-01-24T09:31:09.446Z,66.65
2023-01-24T09:32:14.240Z,68.28
2023-01-24T09:33:18.813Z,68.98
2023-01-24T09:34:22.032Z,68.96
2023-01-24T09:35:24.236Z,67.76
2023-01-24T09:36:28.865Z,66.42
2023-01-24T09:37:31.189Z,65.87
2023-01-24T09:38:36.019Z,66.54
2023-01-24T09:39:38.209Z,68.63
2023-01-24T09:40:46.955Z,66.29
2023-01-24T09:42:11.412Z,67.73
2023-01-24T09:43:24.504Z,66.69
2023-01-24T09:44:39.532Z,65.27
2023-01-24T09:45:50.831Z,66.07
2023-01-24T09:46:55.780Z,67.02
2023-01-24T09:48:02.478Z,67.08
2023-01-24T09:49:17.831Z,67.08
2023-01-24T09:50:26.167Z,66.55
2023-01-24T09:51:33.537Z,69.00
2023-01-24T09:52:41.169Z,69.51
2023-01-24T09:53:47.028Z,70.22
2023-01-24T09:54:58.622Z,69.87
2023-01-24T09:56:05.425Z,70.00
2023-01-24T09:57:13.067Z,68.70
2023-01-24T09:58:30.145Z,66.90
2023-01-24T09:59:41.371Z,68.38
2023-01-24T10:00:43.506Z,69.24
2023-01-24T10:01:49.132Z,69.52
2023-01-24T10:02:53.295Z,69.10
2023-01-24T10:03:55.563Z,70.02
2023-01-24T10:05:01.762Z,68.03
2023-01-24T10:06:12.493Z,69.49
2023-01-24T10:07:47.326Z,68.47
2023-01-24T10:08:58.670Z,69.28
2023-01-24T10:10:15.481Z,68.77
2023-01-24T10:11:31.225Z,69.47
2023-01-24T10:12:51.513Z,68.79
2023-01-24T10:14:25.926Z,69.36
2023-01-24T10:15:44.516Z,67.63
2023-01-24T10:17:14.670Z,68.22
2023-01-24T10:18:48.822Z,68.91
2023-01-24T10:20:08.502Z,68.57
2023-01-24T10:21:24.624Z,68.08
2023-01-24T10:22:44.046Z,68.36
2023-01-24T10:23:54.283Z,68.60
2023-01-24T10:25:04.650Z,68.88
2023-01-24T10:26:19.523Z,65.52
2023-01-24T10:27:31.581Z,66.95
2023-01-24T10:28:39.699Z,67.93
2023-01-24T10:29:45.058Z,69.31
2023-01-24T10:30:53.478Z,70.93
2023-01-24T10:32:02.082Z,72.90
2023-01-24T10:33:12.595Z,73.58
2023-01-24T10:34:22.302Z,74.68
2023-01-24T10:35:33.016Z,72.87
2023-01-24T10:36:44.438Z,73.49
2023-01-24T10:37:56.737Z,74.02
2023-01-24T10:39:00.448Z,74.13
2023-01-24T10:40:04.127Z,75.00
2023-01-24T10:41:19.456Z,74.26
2023-01-24T10:42:26.690Z,75.31
2023-01-24T10:43:32.600Z,74.98
2023-01-24T10:44:38.803Z,74.11
2023-01-24T10:45:52.374Z,73.86
2023-01-24T10:47:34.721Z,72.45
2023-01-24T10:48:42.906Z,71.92
2023-01-24T10:49:54.029Z,71.65
2023-01-24T10:51:12.946Z,71.10
2023-01-24T10:52:18.756Z,70.14
2023-01-24T10:53:29.371Z,70.82
2023-01-24T10:54:43.387Z,69.06
2023-01-24T10:55:50.319Z,69.25
2023-01-24T10:56:52.920Z,68.28
2023-01-24T10:57:56.871Z,69.90
2023-01-24T10:59:05.248Z,70.44
2023-01-24T11:00:30.412Z,71.45
2023-01-24T11:01:36.498Z,70.86
2023-01-24T11:02:40.193Z,71.34
2023-01-24T11:03:43.596Z,70.83
2023-01-24T11:04:45.856Z,70.89
2023-01-24T11:05:51.085Z,72.05
2023-01-24T11:06:56.461Z,70.44
2023-01-24T11:08:01.936Z,69.53
2023-01-24T11:09:11.359Z,66.97
2023-01-24T11:10:21.431Z,67.98
2023-01-24T11:11:27.990Z,66.80
2023-01-24T11:12:30.408Z,66.75
2023-01-24T11:13:37.370Z,65.97
2023-01-24T11:14:41.020Z,66.29
2023-01-24T11:15:53.575Z,67.77
2023-01-24T11:16:59.504Z,67.59
2023-01-24T11:18:20.434Z,70.21
2023-01-24T11:19:30.686Z,68.32
2023-01-24T11:20:35.482Z,68.12
2023-01-24T11:21:54.110Z,69.59
2023-01-24T11:23:10.911Z,71.25
2023-01-24T11:24:16.908Z,70.34
2023-01-24T11:25:19.715Z,68.36
2023-01-24T11:26:25.957Z,67.86
2023-01-24T11:27:28.484Z,66.58
2023-01-24T11:28:33.757Z,67.12
2023-01-24T11:29:37.037Z,66.48
2023-01-24T11:30:40.197Z,67.01
2023-01-24T11:31:46.708Z,66.82
2023-01-24T11:33:01.174Z,66.15
2023-01-24T11:34:33.447Z,65.34
2023-01-24T11:35:40.324Z,66.40
2023-01-24T11:36:54.064Z,67.20
2023-01-24T11:38:18.900Z,68.91
2023-01-24T11:39:27.973Z,68.98
2023-01-24T11:40:38.176Z,68.95
2023-01-24T11:41:50.135Z,68.92
2023-01-24T11:43:08.042Z,71.24
2023-01-24T11:44:42.955Z,70.86
2023-01-24T11:46:03.183Z,70.37
2023-01-24T11:47:14.244Z,69.02
2023-01-24T11:48:22.369Z,68.47
2023-01-24T11:49:58.889Z,67.62
2023-01-24T11:51:13.829Z,67.62
2023-01-24T11:52:35.339Z,68.27
2023-01-24T11:53:54.747Z,68.63
2023-01-24T11:55:05.275Z,69.39
2023-01-24T11:56:21.791Z,67.91
2023-01-24T11:57:37.495Z,68.60
2023-01-24T11:59:05.811Z,68.94
2023-01-24T12:00:26.563Z,67.12
2023-01-24T12:01:41.102Z,68.04
2023-01-24T12:03:04.926Z,68.96
2023-01-24T12:04:48.406Z,69.45
2023-01-24T12:06:07.065Z,68.74
2023-01-24T12:07:18.767Z,68.90
2023-01-24T12:08:32.846Z,69.74
2023-01-24T12:09:45.188Z,71.21
2023-01-24T12:11:16.689Z,67.78
2023-01-24T12:12:31.954Z,70.50
2023-01-24T12:13:43.823Z,71.13
2023-01-24T12:15:14.037Z,70.89
2023-01-24T12:16:30.368Z,69.83
2023-01-24T12:17:47.797Z,69.27
2023-01-24T12:19:09.976Z,69.79
2023-01-24T12:20:33.190Z,67.96
2023-01-24T12:21:36.885Z,67.55
2023-01-24T12:22:43.222Z,69.23
2023-01-24T12:23:52.276Z,71.56
2023-01-24T12:25:04.103Z,71.06
2023-01-24T12:26:13.299Z,70.65
2023-01-24T12:27:19.131Z,70.76
2023-01-24T12:28:30.910Z,68.80
2023-01-24T12:29:38.572Z,68.43
2023-01-24T12:30:45.487Z,69.37
2023-01-24T12:31:53.659Z,70.77
2023-01-24T12:33:04.589Z,70.57
2023-01-24T12:34:18.261Z,70.98
2023-01-24T12:35:26.366Z,70.93
2023-01-24T12:36:41.370Z,69.07
2023-01-24T12:37:56.649Z,68.41
2023-01-24T12:39:13.054Z,70.69
2023-01-24T12:40:26.135Z,70.37
2023-01-24T12:41:32.205Z,70.84
2023-01-24T12:42:49.397Z,70.02
2023-01-24T12:44:01.002Z,71.34
2023-01-24T12:45:13.263Z,69.89
2023-01-24T12:46:21.799Z,69.14
2023-01-24T12:47:35.132Z,68.22
2023-01-24T12:48:43.501Z,68.86
2023-01-24T12:50:00.250Z,68.85
2023-01-24T12:51:11.257Z,68.05
2023-01-24T12:52:22.793Z,68.54
2023-01-24T12:53:32.203Z,69.00
2023-01-24T12:54:42.627Z,69.41
2023-01-24T12:55:58.571Z,69.32
2023-01-24T12:57:11.030Z,68.73
2023-01-24T12:58:21.717Z,68.75
2023-01-24T12:59:26.847Z,69.44
2023-01-24T13:00:40.262Z,68.87
2023-01-24T13:02:08.877Z,68.69
2023-01-24T13:03:30.650Z,69.85
2023-01-24T13:04:45.927Z,69.26
2023-01-24T13:05:58.045Z,68.18
2023-01-24T13:07:12.434Z,68.28
2023-01-24T13:08:31.006Z,68.74
2023-01-24T13:09:44.198Z,68.77
2023-01-24T13:10:59.972Z,68.67
2023-01-24T13:12:06.943Z,68.49
2023-01-24T13:13:21.123Z,67.05
2023-01-24T13:14:27.210Z,68.82
2023-01-24T13:15:41.014Z,68.09
2023-01-24T13:17:14.138Z,67.69
2023-01-24T13:18:33.985Z,67.52
2023-01-24T13:19:49.192Z,68.19
2023-01-24T13:21:11.893Z,64.93
2023-01-24T13:22:33.265Z,65.28
2023-01-24T13:24:01.128Z,68.71
2023-01-24T13:25:25.928Z,67.38
2023-01-24T13:26:50.020Z,68.01
2023-01-24T13:27:59.661Z,68.37
2023-01-24T13:29:16.640Z,67.67
2023-01-24T13:30:29.334Z,67.15
2023-01-24T13:31:38.276Z,67.17
2023-01-24T13:32:42.456Z,67.26
2023-01-24T13:33:50.457Z,67.38
2023-01-24T13:34:56.450Z,67.08
2023-01-24T13:36:00.054Z,67.28
2023-01-24T13:37:04.870Z,68.12
2023-01-24T13:38:23.359Z,68.43
2023-01-24T13:39:41.063Z,68.48
2023-01-24T13:40:59.604Z,68.96
2023-01-24T13:42:07.679Z,71.62
2023-01-24T13:43:52.830Z,70.83
2023-01-24T13:44:55.987Z,69.98
2023-01-24T13:46:01.165Z,70.03
2023-01-24T13:47:23.739Z,69.47
2023-01-24T13:48:48.738Z,69.64
2023-01-24T13:50:13.650Z,69.37
2023-01-24T13:51:37.040Z,69.92
2023-01-24T13:52:42.666Z,70.51
2023-01-24T13:54:04.807Z,69.14
2023-01-24T13:56:01.222Z,68.61
2023-01-24T13:57:22.708Z,68.16
2023-01-24T13:58:28.337Z,68.09
2023-01-24T13:59:32.150Z,67.40
2023-01-24T14:00:36.357Z,67.96
2023-01-24T14:01:48.348Z,67.28
2023-01-24T14:03:13.543Z,67.13
2023-01-24T14:04:17.048Z,66.96
2023-01-24T14:05:40.372Z,66.65
2023-01-24T14:06:45.768Z,66.59
2023-01-24T14:07:48.353Z,66.85
2023-01-24T14:09:05.883Z,66.62
2023-01-24T14:10:10.860Z,66.53
2023-01-24T14:11:24.820Z,66.17
2023-01-24T14:12:33.984Z,65.43
2023-01-24T14:13:55.737Z,64.86
2023-01-24T14:15:06.373Z,64.58
2023-01-24T14:16:10.365Z,65.52
2023-01-24T14:17:47.320Z,65.34
2023-01-24T14:18:53.495Z,65.17
2023-01-24T14:19:59.748Z,65.28
2023-01-24T14:21:04.404Z,64.06
2023-01-24T14:22:18.794Z,64.22
2023-01-24T14:23:25.015Z,64.83
2023-01-24T14:24:31.750Z,64.34
2023-01-24T14:25:44.646Z,63.57
2023-01-24T14:26:52.199Z,63.80
2023-01-24T14:28:01.593Z,63.89
2023-01-24T14:29:15.238Z,64.21
2023-01-24T14:30:32.850Z,64.25
2023-01-24T14:31:40.886Z,64.43